createdAt,value
2019-03-28T00:00:49.810Z,11.53
2019-03-28T00:03:36.864Z,14.30
2019-03-28T00:06:23.897Z,12.50
2019-03-28T00:09:10.971Z,11.57
2019-03-28T00:11:57.898Z,12.10
2019-03-28T00:14:45.303Z,12.23
2019-03-28T00:17:32.002Z,15.17
2019-03-28T00:20:19.024Z,12.30
2019-03-28T00:23:23.577Z,11.63
2019-03-28T00:26:10.936Z,9.97
2019-03-28T00:28:57.954Z,14.83
2019-03-28T00:31:47.743Z,12.73
2019-03-28T00:34:33.773Z,13.80
2019-03-28T00:37:20.569Z,13.20
2019-03-28T00:40:08.229Z,12.83
2019-03-28T00:42:55.307Z,12.90
2019-03-28T00:45:44.589Z,11.87
2019-03-28T00:48:30.997Z,11.90
2019-03-28T00:51:18.072Z,11.33
2019-03-28T00:54:05.460Z,12.00
2019-03-28T00:56:52.902Z,12.63
2019-03-28T00:59:40.477Z,15.97
2019-03-28T01:02:27.677Z,14.73
2019-03-28T01:05:15.300Z,11.73
2019-03-28T01:08:01.981Z,13.10
2019-03-28T01:10:49.401Z,11.27
2019-03-28T01:13:36.430Z,12.97
2019-03-28T01:16:23.396Z,12.83
2019-03-28T01:19:10.346Z,10.57
2019-03-28T01:21:57.393Z,11.67
2019-03-28T01:24:44.699Z,11.47
2019-03-28T01:27:31.410Z,10.83
2019-03-28T01:30:18.846Z,16.47
2019-03-28T01:33:06.159Z,10.53
2019-03-28T01:35:53.246Z,14.47
2019-03-28T01:38:39.894Z,12.97
2019-03-28T01:41:26.958Z,12.13
2019-03-28T01:44:13.644Z,17.27
2019-03-28T01:47:00.817Z,13.90
2019-03-28T01:49:47.828Z,13.87
2019-03-28T01:52:35.037Z,13.73
2019-03-28T01:55:22.035Z,13.57
2019-03-28T01:58:09.098Z,13.67
2019-03-28T02:00:56.596Z,10.30
2019-03-28T02:03:43.621Z,14.03
2019-03-28T02:06:30.832Z,10.10
2019-03-28T02:09:18.182Z,12.77
2019-03-28T02:12:05.720Z,9.47
2019-03-28T02:14:53.047Z,10.73
2019-03-28T02:17:40.195Z,9.93
2019-03-28T02:20:27.518Z,12.63
2019-03-28T02:23:14.720Z,9.03
2019-03-28T02:26:01.725Z,7.37
2019-03-28T02:28:49.150Z,9.20
2019-03-28T02:31:36.066Z,8.13
2019-03-28T02:34:22.841Z,8.37
2019-03-28T02:37:10.165Z,9.90
2019-03-28T02:39:56.937Z,11.83
2019-03-28T02:42:44.155Z,9.60
2019-03-28T02:45:31.471Z,7.90
2019-03-28T02:48:18.497Z,8.90
2019-03-28T02:51:05.546Z,11.23
2019-03-28T02:53:52.838Z,10.87
2019-03-28T02:56:40.147Z,7.87
2019-03-28T02:59:26.992Z,8.03
2019-03-28T03:02:14.070Z,6.73
2019-03-28T03:05:01.527Z,8.97
2019-03-28T03:07:48.583Z,8.73
2019-03-28T03:10:35.632Z,8.73
2019-03-28T03:13:23.028Z,10.57
2019-03-28T03:16:10.091Z,11.23
2019-03-28T03:18:57.484Z,11.63
2019-03-28T03:21:44.334Z,9.37
2019-03-28T03:24:31.704Z,12.23
2019-03-28T03:27:18.664Z,9.10
2019-03-28T03:30:07.896Z,9.47
2019-03-28T03:32:55.002Z,12.13
2019-03-28T03:35:42.284Z,11.73
2019-03-28T03:38:29.006Z,14.20
2019-03-28T03:41:16.031Z,12.57
2019-03-28T03:44:03.481Z,10.70
2019-03-28T03:46:50.719Z,9.20
2019-03-28T03:49:37.958Z,8.00
2019-03-28T03:52:25.090Z,10.30
2019-03-28T03:55:12.129Z,13.87
2019-03-28T03:58:14.278Z,8.83
2019-03-28T04:00:48.150Z,11.00
2019-03-28T04:03:35.468Z,11.03
2019-03-28T04:06:22.646Z,20.43
2019-03-28T04:09:10.015Z,13.90
2019-03-28T04:11:57.419Z,11.17
2019-03-28T04:14:44.575Z,12.83
2019-03-28T04:17:32.044Z,10.77
2019-03-28T04:20:19.221Z,10.67
2019-03-28T04:23:06.115Z,11.43
2019-03-28T04:25:53.454Z,10.47
2019-03-28T04:28:40.482Z,9.10
2019-03-28T04:31:27.654Z,12.83
2019-03-28T04:34:14.846Z,10.10
2019-03-28T04:37:02.176Z,9.87
2019-03-28T04:39:49.213Z,11.60
2019-03-28T04:42:36.337Z,11.50
2019-03-28T04:45:23.350Z,12.47
2019-03-28T04:48:10.040Z,9.33
2019-03-28T04:50:56.926Z,9.63
2019-03-28T04:53:43.770Z,10.50
2019-03-28T04:56:30.889Z,10.67
2019-03-28T04:59:17.625Z,7.87
2019-03-28T05:02:05.081Z,8.27
2019-03-28T05:04:52.180Z,9.13
2019-03-28T05:07:39.452Z,11.27
2019-03-28T05:10:26.165Z,10.80
2019-03-28T05:13:12.992Z,9.07
2019-03-28T05:16:00.311Z,10.30
2019-03-28T05:18:47.381Z,8.43
2019-03-28T05:21:34.425Z,9.57
2019-03-28T05:24:21.851Z,7.27
2019-03-28T05:27:08.958Z,10.47
2019-03-28T05:29:56.058Z,9.70
2019-03-28T05:32:43.492Z,10.03
2019-03-28T05:35:30.602Z,11.00
2019-03-28T05:38:17.619Z,10.47
2019-03-28T05:41:04.584Z,9.57
2019-03-28T05:43:52.026Z,15.90
2019-03-28T05:46:39.229Z,7.73
2019-03-28T05:49:26.282Z,10.30
2019-03-28T05:52:13.594Z,8.80
2019-03-28T05:55:00.662Z,10.30
2019-03-28T05:57:47.694Z,8.90
2019-03-28T06:00:34.813Z,8.93
2019-03-28T06:03:21.938Z,24.17
2019-03-28T06:06:09.207Z,28.33
2019-03-28T06:08:56.452Z,36.27
2019-03-28T06:11:43.276Z,35.23
2019-03-28T06:14:30.569Z,26.53
2019-03-28T06:17:17.454Z,14.37
2019-03-28T06:20:07.425Z,13.97
2019-03-28T06:22:54.375Z,11.37
2019-03-28T06:25:41.645Z,12.00
2019-03-28T06:28:28.577Z,8.03
2019-03-28T06:31:15.746Z,10.60
2019-03-28T06:34:02.838Z,8.00
2019-03-28T06:36:49.911Z,11.77
2019-03-28T06:39:37.140Z,9.00
2019-03-28T06:42:24.048Z,9.37
2019-03-28T06:45:11.457Z,10.43
2019-03-28T06:47:58.456Z,10.90
2019-03-28T06:50:45.568Z,14.07
2019-03-28T06:53:32.553Z,13.33
2019-03-28T06:56:19.926Z,14.33
2019-03-28T06:59:07.039Z,13.87
2019-03-28T07:01:54.074Z,16.53
2019-03-28T07:04:41.350Z,12.07
2019-03-28T07:07:28.728Z,13.87
2019-03-28T07:10:16.099Z,13.00
2019-03-28T07:13:03.052Z,13.43
2019-03-28T07:15:50.254Z,12.23
2019-03-28T07:18:37.029Z,10.43
2019-03-28T07:21:24.246Z,10.83
2019-03-28T07:24:11.116Z,13.50
2019-03-28T07:26:58.545Z,16.80
2019-03-28T07:29:51.194Z,12.73
2019-03-28T07:32:34.492Z,12.97
2019-03-28T07:35:21.526Z,15.00
2019-03-28T07:38:08.819Z,14.77
2019-03-28T07:40:55.902Z,13.50
2019-03-28T07:43:42.903Z,11.03
2019-03-28T07:46:30.330Z,12.13
2019-03-28T07:49:17.698Z,12.90
2019-03-28T07:52:05.038Z,13.80
2019-03-28T07:54:52.608Z,10.47
2019-03-28T07:57:40.139Z,13.63
2019-03-28T08:00:27.152Z,13.97
2019-03-28T08:03:14.222Z,12.17
2019-03-28T08:06:01.350Z,11.03
2019-03-28T08:08:48.461Z,10.07
2019-03-28T08:11:35.218Z,12.13
2019-03-28T08:14:22.281Z,9.43
2019-03-28T08:17:09.773Z,11.30
2019-03-28T08:19:57.125Z,10.33
2019-03-28T08:22:44.256Z,8.47
2019-03-28T08:25:31.267Z,10.03
2019-03-28T08:28:18.342Z,7.40
2019-03-28T08:31:05.070Z,8.27
2019-03-28T08:33:52.476Z,9.60
2019-03-28T08:36:39.959Z,7.93
2019-03-28T08:39:28.430Z,7.10
2019-03-28T08:42:15.768Z,7.40
2019-03-28T08:45:03.580Z,7.80
2019-03-28T08:47:50.853Z,7.87
2019-03-28T08:50:38.353Z,7.50
2019-03-28T08:53:25.507Z,7.27
2019-03-28T08:56:12.632Z,9.40
2019-03-28T08:59:00.377Z,7.20
2019-03-28T09:01:47.875Z,8.75
2019-03-28T09:04:35.661Z,7.33
2019-03-28T09:07:23.074Z,9.75
2019-03-28T09:10:11.125Z,7.50
2019-03-28T09:12:58.469Z,8.58
2019-03-28T09:15:46.429Z,8.23
2019-03-28T09:18:34.037Z,8.03
2019-03-28T09:21:21.903Z,9.28
2019-03-28T09:24:09.589Z,7.28
2019-03-28T09:26:57.094Z,7.40
2019-03-28T09:29:45.019Z,8.15
2019-03-28T09:32:32.824Z,8.08
2019-03-28T09:35:30.270Z,7.47
2019-03-28T09:38:18.215Z,8.50
2019-03-28T09:41:05.871Z,7.50
2019-03-28T09:43:55.697Z,8.15
2019-03-28T09:46:42.710Z,6.70
2019-03-28T09:49:30.513Z,7.62
2019-03-28T09:52:17.926Z,7.87
2019-03-28T09:55:06.783Z,6.97
2019-03-28T09:57:54.543Z,8.73
2019-03-28T10:00:42.048Z,6.87
2019-03-28T10:03:30.164Z,6.90
2019-03-28T10:06:17.743Z,6.60
2019-03-28T10:09:06.915Z,6.15
2019-03-28T10:11:54.778Z,6.85
2019-03-28T10:14:42.378Z,6.58
2019-03-28T10:17:30.622Z,12.75
2019-03-28T10:20:18.204Z,10.58
2019-03-28T10:23:05.921Z,30.90
2019-03-28T10:25:53.938Z,27.35
2019-03-28T10:28:41.546Z,8.58
2019-03-28T10:31:29.499Z,10.90
2019-03-28T10:34:17.385Z,11.43
2019-03-28T10:37:04.906Z,7.97
2019-03-28T10:39:52.876Z,6.20
2019-03-28T10:42:40.450Z,9.13
2019-03-28T10:45:28.140Z,6.60
2019-03-28T10:48:15.630Z,6.87
2019-03-28T10:51:03.269Z,6.17
2019-03-28T10:53:50.823Z,6.25
2019-03-28T10:56:51.219Z,6.72
2019-03-28T10:59:28.280Z,6.03
2019-03-28T11:02:16.285Z,5.85
2019-03-28T11:05:05.873Z,6.17
2019-03-28T11:07:53.483Z,6.15
2019-03-28T11:10:41.386Z,6.10
2019-03-28T11:13:29.096Z,5.70
2019-03-28T11:16:16.615Z,6.50
2019-03-28T11:19:04.338Z,5.85
2019-03-28T11:21:51.714Z,5.60
2019-03-28T11:24:39.411Z,6.47
2019-03-28T11:27:27.001Z,6.25
2019-03-28T11:30:18.336Z,7.08
2019-03-28T11:33:06.523Z,9.28
2019-03-28T11:35:54.521Z,23.45
2019-03-28T11:38:42.161Z,18.85
2019-03-28T11:41:29.975Z,12.58
2019-03-28T11:44:18.170Z,13.78
2019-03-28T11:47:05.688Z,12.43
2019-03-28T11:49:53.004Z,8.00
2019-03-28T11:52:42.700Z,13.13
2019-03-28T11:55:31.658Z,30.55
2019-03-28T11:58:19.096Z,10.10
2019-03-28T12:01:06.872Z,11.23
2019-03-28T12:03:54.290Z,7.90
2019-03-28T12:06:41.472Z,8.23
2019-03-28T12:09:28.933Z,6.70
2019-03-28T12:12:16.562Z,6.42
2019-03-28T12:15:06.006Z,5.78
2019-03-28T12:17:53.849Z,5.47
2019-03-28T12:20:41.873Z,6.92
2019-03-28T12:23:29.194Z,5.10
2019-03-28T12:26:16.780Z,2.95
2019-03-28T12:29:05.926Z,3.90
2019-03-28T12:31:53.793Z,4.28
2019-03-28T12:34:41.410Z,4.62
2019-03-28T12:37:29.002Z,4.08
2019-03-28T12:40:17.210Z,4.00
2019-03-28T12:43:04.972Z,4.22
2019-03-28T12:45:52.901Z,3.52
2019-03-28T12:48:40.767Z,3.70
2019-03-28T12:51:28.968Z,4.10
2019-03-28T12:54:16.433Z,3.90
2019-03-28T12:57:04.902Z,4.00
2019-03-28T12:59:53.763Z,3.98
2019-03-28T13:02:41.968Z,3.92
2019-03-28T13:05:29.988Z,5.00
2019-03-28T13:08:17.802Z,4.58
2019-03-28T13:11:05.552Z,4.55
2019-03-28T13:13:53.528Z,8.13
2019-03-28T13:16:41.475Z,4.70
2019-03-28T13:19:28.706Z,4.60
2019-03-28T13:22:16.556Z,5.33
2019-03-28T13:25:06.389Z,4.85
2019-03-28T13:27:54.421Z,7.50
2019-03-28T13:30:42.237Z,5.58
2019-03-28T13:33:29.826Z,5.53
2019-03-28T13:36:17.683Z,5.58
2019-03-28T13:39:07.234Z,5.45
2019-03-28T13:41:54.934Z,5.03
2019-03-28T13:44:42.646Z,5.28
2019-03-28T13:47:29.895Z,5.20
2019-03-28T13:50:18.346Z,4.97
2019-03-28T13:53:05.681Z,5.50
2019-03-28T13:55:52.931Z,5.37
2019-03-28T13:58:40.623Z,4.70
2019-03-28T14:01:28.594Z,5.72
2019-03-28T14:04:16.138Z,5.80
2019-03-28T14:07:04.090Z,5.08
2019-03-28T14:09:51.665Z,4.90
2019-03-28T14:12:39.542Z,4.67
2019-03-28T14:15:27.135Z,7.12
2019-03-28T14:18:14.582Z,5.58
2019-03-28T14:21:02.231Z,4.70
2019-03-28T14:23:50.401Z,5.60
2019-03-28T14:26:37.926Z,4.90
2019-03-28T14:29:25.512Z,4.92
2019-03-28T14:32:13.445Z,5.20
2019-03-28T14:35:01.143Z,6.28
2019-03-28T14:37:48.433Z,5.20
2019-03-28T14:40:35.858Z,5.50
2019-03-28T14:43:23.473Z,5.20
2019-03-28T14:46:11.291Z,4.70
2019-03-28T14:48:59.162Z,5.40
2019-03-28T14:51:46.781Z,5.33
2019-03-28T14:54:34.283Z,4.70
2019-03-28T14:57:22.404Z,4.60
2019-03-28T15:00:46.407Z,4.80
2019-03-28T15:03:32.285Z,5.20
2019-03-28T15:06:20.698Z,4.72
2019-03-28T15:09:09.789Z,4.40
2019-03-28T15:11:57.193Z,5.72
2019-03-28T15:14:44.446Z,4.25
2019-03-28T15:17:31.898Z,5.20
2019-03-28T15:20:19.730Z,5.92
2019-03-28T15:23:07.407Z,20.60
2019-03-28T15:25:55.328Z,6.40
2019-03-28T15:28:42.680Z,7.35
2019-03-28T15:31:30.629Z,4.83
2019-03-28T15:34:17.834Z,4.77
2019-03-28T15:37:05.691Z,5.00
2019-03-28T15:39:53.399Z,3.27
2019-03-28T15:42:41.189Z,3.40
2019-03-28T15:45:28.939Z,3.40
2019-03-28T15:48:16.013Z,3.80
2019-03-28T15:51:03.925Z,3.37
2019-03-28T15:53:51.777Z,3.80
2019-03-28T15:56:38.960Z,4.20
2019-03-28T15:59:26.649Z,3.42
2019-03-28T16:02:14.629Z,3.17
2019-03-28T16:05:02.594Z,3.75
2019-03-28T16:07:50.190Z,4.17
2019-03-28T16:10:37.743Z,3.83
2019-03-28T16:13:25.293Z,3.40
2019-03-28T16:16:12.801Z,3.55
2019-03-28T16:19:01.762Z,3.47
2019-03-28T16:21:49.568Z,3.30
2019-03-28T16:24:37.440Z,4.03
2019-03-28T16:27:25.289Z,4.30
2019-03-28T16:30:14.199Z,4.12
2019-03-28T16:33:02.337Z,4.08
2019-03-28T16:35:49.371Z,4.20
2019-03-28T16:38:36.642Z,4.23
2019-03-28T16:41:24.774Z,6.80
2019-03-28T16:44:12.187Z,4.60
2019-03-28T16:46:59.441Z,4.67
2019-03-28T16:49:46.967Z,6.87
2019-03-28T16:52:34.241Z,5.10
2019-03-28T16:55:26.631Z,3.90
2019-03-28T16:58:09.943Z,4.10
2019-03-28T17:00:56.854Z,4.33
2019-03-28T17:03:43.990Z,4.83
2019-03-28T17:06:31.584Z,4.73
2019-03-28T17:09:19.000Z,5.33
2019-03-28T17:12:06.873Z,4.13
2019-03-28T17:14:54.066Z,6.33
2019-03-28T17:17:41.503Z,6.43
2019-03-28T17:20:28.980Z,4.20
2019-03-28T17:23:15.982Z,6.33
2019-03-28T17:26:03.895Z,4.00
2019-03-28T17:28:50.577Z,5.10
2019-03-28T17:31:38.081Z,5.77
2019-03-28T17:34:34.704Z,5.07
2019-03-28T17:37:14.141Z,3.90
2019-03-28T17:40:01.214Z,4.87
2019-03-28T17:42:48.268Z,3.70
2019-03-28T17:45:35.326Z,4.47
2019-03-28T17:48:22.646Z,5.57
2019-03-28T17:51:10.290Z,4.40
2019-03-28T17:53:57.506Z,4.97
2019-03-28T17:56:44.478Z,3.97
2019-03-28T17:59:31.834Z,3.97
2019-03-28T18:02:19.181Z,4.17
2019-03-28T18:05:09.733Z,3.43
2019-03-28T18:07:55.864Z,5.20
2019-03-28T18:10:43.059Z,13.47
2019-03-28T18:13:31.300Z,4.27
2019-03-28T18:16:18.834Z,6.53
2019-03-28T18:19:05.821Z,3.53
2019-03-28T18:22:03.249Z,3.63
2019-03-28T18:24:41.838Z,3.37
2019-03-28T18:27:29.120Z,3.57
2019-03-28T18:30:18.113Z,4.40
2019-03-28T18:33:05.908Z,3.97
2019-03-28T18:35:53.118Z,5.93
2019-03-28T18:38:40.333Z,5.50
2019-03-28T18:41:27.613Z,4.83
2019-03-28T18:44:15.201Z,4.47
2019-03-28T18:47:03.047Z,3.40
2019-03-28T18:49:50.319Z,5.17
2019-03-28T18:52:37.917Z,7.03
2019-03-28T18:55:25.168Z,4.33
2019-03-28T18:58:12.290Z,6.37
2019-03-28T19:00:59.847Z,11.43
2019-03-28T19:03:46.838Z,15.23
2019-03-28T19:06:34.007Z,11.93
2019-03-28T19:09:20.882Z,5.73
2019-03-28T19:12:08.063Z,5.33
2019-03-28T19:14:55.352Z,7.97
2019-03-28T19:17:42.249Z,8.27
2019-03-28T19:20:29.453Z,5.87
2019-03-28T19:23:16.574Z,5.60
2019-03-28T19:26:03.698Z,5.77
2019-03-28T19:28:50.710Z,6.63
2019-03-28T19:31:37.819Z,6.53
2019-03-28T19:34:24.927Z,5.83
2019-03-28T19:37:12.359Z,6.90
2019-03-28T19:39:59.655Z,5.97
2019-03-28T19:42:47.066Z,5.70
2019-03-28T19:45:36.291Z,7.63
2019-03-28T19:48:23.528Z,5.83
2019-03-28T19:51:10.652Z,5.60
2019-03-28T19:53:57.914Z,5.30
2019-03-28T19:56:44.965Z,5.07
2019-03-28T19:59:32.118Z,4.80
2019-03-28T20:02:19.290Z,4.27
2019-03-28T20:05:07.940Z,6.83
2019-03-28T20:07:54.691Z,5.57
2019-03-28T20:10:41.982Z,10.87
2019-03-28T20:13:30.840Z,6.00
2019-03-28T20:16:17.761Z,5.40
2019-03-28T20:19:05.059Z,6.43
2019-03-28T20:21:52.324Z,6.43
2019-03-28T20:24:40.100Z,7.17
2019-03-28T20:27:28.013Z,6.03
2019-03-28T20:30:15.744Z,6.97
2019-03-28T20:33:02.830Z,8.90
2019-03-28T20:36:05.875Z,7.20
2019-03-28T20:38:39.258Z,6.70
2019-03-28T20:41:26.473Z,7.33
2019-03-28T20:44:13.759Z,6.30
2019-03-28T20:47:01.134Z,7.03
2019-03-28T20:49:48.534Z,8.03
2019-03-28T20:52:35.653Z,7.07
2019-03-28T20:55:22.798Z,6.57
2019-03-28T20:58:10.021Z,8.83
2019-03-28T21:00:57.437Z,12.47
2019-03-28T21:03:44.542Z,11.83
2019-03-28T21:06:31.615Z,11.10
2019-03-28T21:09:18.901Z,10.27
2019-03-28T21:12:06.255Z,13.23
2019-03-28T21:14:53.884Z,14.20
2019-03-28T21:17:40.953Z,9.17
2019-03-28T21:20:28.106Z,8.67
2019-03-28T21:23:15.336Z,7.93
2019-03-28T21:26:02.634Z,10.77
2019-03-28T21:28:50.897Z,20.33
2019-03-28T21:31:49.158Z,10.20
2019-03-28T21:34:26.899Z,10.70
2019-03-28T21:37:13.891Z,7.60
2019-03-28T21:40:01.657Z,8.80
2019-03-28T21:42:48.765Z,6.87
2019-03-28T21:45:35.992Z,10.70
2019-03-28T21:48:23.111Z,7.00
2019-03-28T21:51:11.549Z,6.63
2019-03-28T21:53:59.138Z,8.27
2019-03-28T21:56:46.318Z,7.80
2019-03-28T21:59:33.294Z,6.77
2019-03-28T22:02:20.241Z,6.33
2019-03-28T22:05:07.522Z,6.50
2019-03-28T22:07:54.938Z,7.13
2019-03-28T22:10:42.427Z,7.00
2019-03-28T22:13:29.796Z,7.10
2019-03-28T22:16:17.194Z,6.90
2019-03-28T22:19:05.367Z,7.00
2019-03-28T22:21:52.509Z,7.10
2019-03-28T22:24:39.487Z,6.83
2019-03-28T22:27:26.898Z,7.40
2019-03-28T22:30:14.564Z,7.93
2019-03-28T22:33:01.621Z,7.37
2019-03-28T22:35:48.907Z,7.50
2019-03-28T22:38:35.847Z,7.17
2019-03-28T22:41:23.081Z,7.47
2019-03-28T22:44:10.038Z,8.70
2019-03-28T22:46:57.074Z,11.67
2019-03-28T22:49:44.449Z,14.53
2019-03-28T22:52:31.607Z,12.97
2019-03-28T22:55:18.703Z,12.87
2019-03-28T22:58:06.093Z,12.40
2019-03-28T23:00:56.141Z,10.97
2019-03-28T23:03:43.244Z,12.93
2019-03-28T23:06:30.286Z,11.23
2019-03-28T23:09:17.343Z,12.33
2019-03-28T23:12:04.164Z,9.50
2019-03-28T23:14:51.625Z,9.60
2019-03-28T23:17:38.575Z,8.43
2019-03-28T23:20:25.598Z,8.43
2019-03-28T23:23:12.615Z,8.20
2019-03-28T23:25:59.628Z,8.23
2019-03-28T23:28:47.114Z,8.70
2019-03-28T23:31:34.398Z,8.17
2019-03-28T23:34:21.426Z,9.27
2019-03-28T23:37:09.127Z,8.77
2019-03-28T23:39:56.419Z,8.60
2019-03-28T23:42:43.998Z,9.07
2019-03-28T23:45:31.380Z,8.57
2019-03-28T23:48:18.594Z,8.13
2019-03-28T23:51:05.419Z,8.50
2019-03-28T23:53:52.727Z,8.90
2019-03-28T23:56:39.843Z,9.20
2019-03-28T23:59:27.045Z,9.70
